Nearby METAR Reports

 

KEQY - Monroe, North Carolina, USA
Distance from station: S 11mi, 18km
Updated: Tue, 04/28/2015 1:53pm EDT
Clear
Clear
 Wind from N
Wind: N 10 mph , 17 km/h
Temperature: 66°F , 19°C
Dew Point: 37°F , 3°C
Humidity: 35%
Barometer: 29.94 inHg , 1013.9 hPa
Clouds: Clear
Visibility: 10 miles , 16 km
2015/04/28 17:53 KEQY 281753Z AUTO 35009KT 10SM CLR 19/03 A2994 RMK AO2 SLP148 T01890033 10189 20089 58017
KJQF - Concord Reg Arpt, North Carolina, USA
Distance from station: NNW 16mi, 25km
Updated: Tue, 04/28/2015 7:15am EDT
NOT Current
Clear
Clear
 Wind from N
Wind: N 3 mph , 6 km/h
Temperature: 41°F , 5°C
Dew Point: 37°F , 3°C
Humidity: 87%
Barometer: 30.00 inHg , 1015.9 hPa
Clouds: Clear
Visibility: 10 miles , 16 km
2015/04/28 11:15 KJQF 281115Z AUTO 36003KT 10SM CLR 05/03 A3000 RMK AO2
 
KCLT - Charlotte, North Carolina, USA
Distance from station: W 20mi, 33km
Updated: Tue, 04/28/2015 1:52pm EDT
Few Clouds
Few Clouds
 Wind from calm
Wind: Calm
Temperature: 64°F , 18°C
Dew Point: 36°F , 2°C
Humidity: 34%
Barometer: 29.96 inHg , 1014.6 hPa
Clouds: Few Clouds
Visibility: 10 miles , 16 km
Cloud details: Few Clouds 25000 ft
2015/04/28 17:52 KCLT 281752Z 00000KT 10SM FEW250 18/02 A2996 RMK AO2 SLP142 T01780022 10189 20094 58015
KUZA - Rock Hill, South Carolina, USA
Distance from station: WSW 29mi, 47km
Updated: Tue, 04/28/2015 1:54pm EDT
Clear
Clear
 Wind from NNE
Wind: NNE 10 mph , 17 km/h
Temperature: 66°F , 19°C
Dew Point: 37°F , 3°C
Humidity: 35%
Barometer: 29.95 inHg , 1014.2 hPa
Clouds: Clear
Visibility: 10 miles , 16 km
2015/04/28 17:54 KUZA 281754Z AUTO 02009KT 10SM CLR 19/03 A2995 RMK AO2 SLP141 T01890033 10189 20089 58016
 
KVUJ - Albemarle Stanly, North Carolina, USA
Distance from station: NE 30mi, 48km
Updated: Tue, 04/28/2015 1:55pm EDT
Clear
Clear
 Wind from E
Wind: E 3 mph , 6 km/h
Temperature: 64°F , 18°C
Dew Point: 39°F , 4°C
Humidity: 40%
Barometer: 30.00 inHg , 1015.9 hPa
Clouds: Clear
Visibility: 10 miles , 16 km
2015/04/28 17:55 KVUJ 281755Z AUTO 09003KT 10SM CLR 18/04 A3000 RMK AO2 T01780043 10181 20067
KAFP - Wadesboro/Anson, North Carolina, USA
Distance from station: ESE 31mi, 50km
Updated: Tue, 04/28/2015 1:55pm EDT
Clear
Clear
 Wind from calm
Wind: Calm
Temperature: 66°F , 19°C
Dew Point: 37°F , 3°C
Humidity: 35%
Barometer: 29.95 inHg , 1014.2 hPa
Clouds: Clear
Visibility: 10 miles , 16 km
2015/04/28 17:55 KAFP 281755Z AUTO 00000KT 10SM CLR 19/03 A2995 RMK AO2 T01880027 10188 20063
 
KAKH - Gastonia, North Carolina, USA
Distance from station: W 31mi, 51km
Updated: Tue, 04/28/2015 1:54pm EDT
Clear
Clear
 
Temperature: 66°F , 19°C
Dew Point: 37°F , 3°C
Humidity: 35%
Barometer: 29.95 inHg , 1014.2 hPa
Clouds: Clear
Visibility: 10 miles , 16 km
2015/04/28 17:54 KAKH 281754Z AUTO 10SM CLR 19/03 A2995 RMK AO2 SLP139 T01940033 10194 20094 58015
KRUQ - Salisbury Rowan, North Carolina, USA
Distance from station: N 33mi, 53km
Updated: Tue, 04/28/2015 1:55pm EDT
Clear
Clear
 Wind from ESE
Wind: ESE 6 mph , 9 km/h
Temperature: 63°F , 17°C
Dew Point: 37°F , 3°C
Humidity: 39%
Barometer: 29.96 inHg , 1014.6 hPa
Clouds: Clear
Visibility: 10 miles , 16 km
2015/04/28 17:55 KRUQ 281755Z AUTO 12005KT 10SM CLR 17/03 A2996 RMK AO2 T01710032 10173 20062
 
KLKR - Lancaster, South Carolina, USA
Distance from station: SSW 35mi, 57km
Updated: Tue, 04/28/2015 1:55pm EDT
Clear
Clear
 Wind from W
Wind: W 5 mph , 7 km/h
Temperature: 66°F , 19°C
Dew Point: 37°F , 3°C
Humidity: 35%
Barometer: 29.95 inHg , 1014.2 hPa
Clouds: Clear
Visibility: 10 miles , 16 km
2015/04/28 17:55 KLKR 281755Z AUTO 26004KT 10SM CLR 19/03 A2995 RMK AO2
KIPJ - Lincolnton, North Carolina, USA
Distance from station: WNW 39mi, 62km
Updated: Tue, 04/28/2015 1:55pm EDT
Partly cloudy
Partly cloudy
 Wind from WNW
Wind: WNW 5 mph , 7 km/h
Temperature: 66°F , 19°C
Dew Point: 36°F , 2°C
Humidity: 32%
Barometer: 29.95 inHg , 1014.2 hPa
Clouds: Partly cloudy
Visibility: 10 miles , 16 km
Cloud details: Partly cloudy 6000 ft
2015/04/28 17:55 KIPJ 281755Z AUTO 30004KT 10SM SCT060 19/02 A2995 RMK AO2 T01890022 10195 20055
 
KDCM - Chester Catawba, South Carolina, USA
Distance from station: SW 44mi, 71km
Updated: Tue, 04/28/2015 1:55pm EDT
Clear
Clear
 Wind from calm
Wind: Calm
Temperature: 68°F , 20°C
Dew Point: 36°F , 2°C
Humidity: 30%
Barometer: 29.96 inHg , 1014.6 hPa
Clouds: Clear
Visibility: 10 miles , 16 km
2015/04/28 17:55 KDCM 281755Z AUTO 00000KT 10SM CLR 20/02 A2996 RMK AO2
KSVH - Statesville, North Carolina, USA
Distance from station: NNW 44mi, 71km
Updated: Tue, 04/28/2015 1:55pm EDT
Clear
Clear
 Wind from N
Wind: N 8 mph , 13 km/h
Temperature: 64°F , 18°C
Dew Point: 39°F , 4°C
Humidity: 40%
Barometer: 29.95 inHg , 1014.2 hPa
Clouds: Clear
Visibility: 10 miles , 16 km
2015/04/28 17:55 KSVH 281755Z AUTO 35007KT 10SM CLR 18/04 A2995 RMK AO2 T01770039 10177 20072
 
KEXX - Davidson Cty Ap, North Carolina, USA
Distance from station: NNE 45mi, 72km
Updated: Tue, 04/28/2015 1:55pm EDT
Clear
Clear
 Wind from ENE
Wind: ENE 3 mph , 6 km/h
Temperature: 63°F , 17°C
Dew Point: 34°F , 1°C
Humidity: 34%
Barometer: 29.96 inHg , 1014.6 hPa
Clouds: Clear
Visibility: 10 miles , 16 km
2015/04/28 17:55 KEXX 281755Z AUTO 07003KT 10SM CLR 17/01 A2996 RMK AO2 T01700010 10172 20091
KCQW - Cheraw, South Carolina, USA
Distance from station: SE 49mi, 78km
Updated: Tue, 04/28/2015 1:55pm EDT
Clear
Clear
 Wind from NW
Wind: NW 9 mph , 15 km/h
Temperature: 66°F , 19°C
Dew Point: 34°F , 1°C
Humidity: 30%
Barometer: 29.94 inHg , 1013.9 hPa
Clouds: Clear
Visibility: 10 miles , 16 km
2015/04/28 17:55 KCQW 281755Z AUTO 31008KT 10SM CLR 19/01 A2994 RMK AO2